sensor_id;sensor_type;location;lat;lon;timestamp;P1;durP1;ratioP1;P2;durP2;ratioP2
10645;SDS011;5371;49.782;9.932;2023-12-29T00:00:02;4.72;;;3.10;;
10645;SDS011;5371;49.782;9.932;2023-12-29T00:02:31;5.70;;;3.05;;
10645;SDS011;5371;49.782;9.932;2023-12-29T00:04:59;4.40;;;3.20;;
10645;SDS011;5371;49.782;9.932;2023-12-29T00:07:26;5.18;;;2.83;;
10645;SDS011;5371;49.782;9.932;2023-12-29T00:09:53;4.10;;;2.78;;
10645;SDS011;5371;49.782;9.932;2023-12-29T00:12:20;2.95;;;2.65;;
10645;SDS011;5371;49.782;9.932;2023-12-29T00:14:47;4.20;;;2.90;;
10645;SDS011;5371;49.782;9.932;2023-12-29T00:17:14;3.35;;;2.80;;
10645;SDS011;5371;49.782;9.932;2023-12-29T00:19:41;3.78;;;2.70;;
10645;SDS011;5371;49.782;9.932;2023-12-29T00:22:09;3.20;;;2.53;;
10645;SDS011;5371;49.782;9.932;2023-12-29T00:24:36;3.20;;;2.80;;
10645;SDS011;5371;49.782;9.932;2023-12-29T00:27:05;4.57;;;2.80;;
10645;SDS011;5371;49.782;9.932;2023-12-29T00:29:32;3.58;;;2.90;;
10645;SDS011;5371;49.782;9.932;2023-12-29T00:31:59;3.93;;;2.93;;
10645;SDS011;5371;49.782;9.932;2023-12-29T00:34:27;3.17;;;2.70;;
10645;SDS011;5371;49.782;9.932;2023-12-29T00:36:54;5.47;;;3.00;;
10645;SDS011;5371;49.782;9.932;2023-12-29T00:39:23;3.37;;;2.63;;
10645;SDS011;5371;49.782;9.932;2023-12-29T00:41:54;4.17;;;2.83;;
10645;SDS011;5371;49.782;9.932;2023-12-29T00:44:22;4.07;;;2.85;;
10645;SDS011;5371;49.782;9.932;2023-12-29T00:46:49;4.00;;;2.80;;
10645;SDS011;5371;49.782;9.932;2023-12-29T00:49:17;3.72;;;2.60;;
10645;SDS011;5371;49.782;9.932;2023-12-29T00:51:44;4.50;;;2.53;;
10645;SDS011;5371;49.782;9.932;2023-12-29T00:54:11;3.47;;;2.65;;
10645;SDS011;5371;49.782;9.932;2023-12-29T00:56:40;4.78;;;2.83;;
10645;SDS011;5371;49.782;9.932;2023-12-29T00:59:06;2.85;;;2.45;;
10645;SDS011;5371;49.782;9.932;2023-12-29T01:01:34;3.30;;;2.58;;
10645;SDS011;5371;49.782;9.932;2023-12-29T01:04:01;4.20;;;2.92;;
10645;SDS011;5371;49.782;9.932;2023-12-29T01:06:28;3.53;;;2.72;;
10645;SDS011;5371;49.782;9.932;2023-12-29T01:08:55;4.93;;;2.87;;
10645;SDS011;5371;49.782;9.932;2023-12-29T01:11:23;3.93;;;2.80;;
10645;SDS011;5371;49.782;9.932;2023-12-29T01:13:52;3.43;;;2.73;;
10645;SDS011;5371;49.782;9.932;2023-12-29T01:16:18;3.42;;;2.67;;
10645;SDS011;5371;49.782;9.932;2023-12-29T01:18:45;5.90;;;3.20;;
10645;SDS011;5371;49.782;9.932;2023-12-29T01:21:12;4.45;;;3.00;;
10645;SDS011;5371;49.782;9.932;2023-12-29T01:23:39;3.53;;;2.88;;
10645;SDS011;5371;49.782;9.932;2023-12-29T01:26:06;5.53;;;2.70;;
10645;SDS011;5371;49.782;9.932;2023-12-29T01:28:34;4.50;;;2.90;;
10645;SDS011;5371;49.782;9.932;2023-12-29T01:31:02;4.10;;;2.70;;
10645;SDS011;5371;49.782;9.932;2023-12-29T01:33:30;4.03;;;3.08;;
10645;SDS011;5371;49.782;9.932;2023-12-29T01:35:57;3.30;;;2.83;;
10645;SDS011;5371;49.782;9.932;2023-12-29T01:38:24;4.35;;;2.88;;
10645;SDS011;5371;49.782;9.932;2023-12-29T01:40:51;4.22;;;3.20;;
10645;SDS011;5371;49.782;9.932;2023-12-29T01:43:18;3.58;;;2.92;;
10645;SDS011;5371;49.782;9.932;2023-12-29T01:45:45;3.77;;;2.77;;
10645;SDS011;5371;49.782;9.932;2023-12-29T01:48:13;3.33;;;2.50;;
10645;SDS011;5371;49.782;9.932;2023-12-29T01:50:40;5.17;;;3.07;;
10645;SDS011;5371;49.782;9.932;2023-12-29T01:53:07;3.92;;;2.67;;
10645;SDS011;5371;49.782;9.932;2023-12-29T01:55:34;3.17;;;2.72;;
10645;SDS011;5371;49.782;9.932;2023-12-29T01:58:01;4.25;;;2.58;;
10645;SDS011;5371;49.782;9.932;2023-12-29T02:00:28;3.63;;;2.80;;
10645;SDS011;5371;49.782;9.932;2023-12-29T02:02:57;3.67;;;2.60;;
10645;SDS011;5371;49.782;9.932;2023-12-29T02:05:26;5.37;;;2.80;;
10645;SDS011;5371;49.782;9.932;2023-12-29T02:07:53;5.17;;;3.00;;
10645;SDS011;5371;49.782;9.932;2023-12-29T02:10:20;3.83;;;2.63;;
10645;SDS011;5371;49.782;9.932;2023-12-29T02:12:48;5.03;;;2.90;;
10645;SDS011;5371;49.782;9.932;2023-12-29T02:15:15;3.77;;;2.87;;
10645;SDS011;5371;49.782;9.932;2023-12-29T02:17:44;4.22;;;2.85;;
10645;SDS011;5371;49.782;9.932;2023-12-29T02:20:13;3.23;;;2.70;;
10645;SDS011;5371;49.782;9.932;2023-12-29T02:22:43;3.50;;;2.80;;
10645;SDS011;5371;49.782;9.932;2023-12-29T02:25:11;4.18;;;2.90;;
10645;SDS011;5371;49.782;9.932;2023-12-29T02:27:43;3.27;;;2.90;;
10645;SDS011;5371;49.782;9.932;2023-12-29T02:30:25;3.33;;;2.90;;
10645;SDS011;5371;49.782;9.932;2023-12-29T02:32:56;3.90;;;2.95;;
10645;SDS011;5371;49.782;9.932;2023-12-29T02:35:27;3.50;;;3.20;;
10645;SDS011;5371;49.782;9.932;2023-12-29T02:37:55;3.25;;;2.92;;
10645;SDS011;5371;49.782;9.932;2023-12-29T02:40:24;5.82;;;3.47;;
10645;SDS011;5371;49.782;9.932;2023-12-29T02:42:52;4.30;;;3.33;;
10645;SDS011;5371;49.782;9.932;2023-12-29T02:45:19;5.17;;;3.50;;
10645;SDS011;5371;49.782;9.932;2023-12-29T02:47:46;4.93;;;4.33;;
10645;SDS011;5371;49.782;9.932;2023-12-29T02:50:14;5.40;;;3.87;;
10645;SDS011;5371;49.782;9.932;2023-12-29T02:52:41;4.37;;;3.97;;
10645;SDS011;5371;49.782;9.932;2023-12-29T02:55:08;5.17;;;4.07;;
10645;SDS011;5371;49.782;9.932;2023-12-29T02:57:37;4.20;;;3.60;;
10645;SDS011;5371;49.782;9.932;2023-12-29T03:00:05;5.23;;;3.90;;
10645;SDS011;5371;49.782;9.932;2023-12-29T03:02:33;5.10;;;3.80;;
10645;SDS011;5371;49.782;9.932;2023-12-29T03:04:59;5.00;;;3.60;;
10645;SDS011;5371;49.782;9.932;2023-12-29T03:07:27;6.27;;;3.70;;
10645;SDS011;5371;49.782;9.932;2023-12-29T03:09:54;5.93;;;3.80;;
10645;SDS011;5371;49.782;9.932;2023-12-29T03:12:20;6.13;;;4.00;;
10645;SDS011;5371;49.782;9.932;2023-12-29T03:14:49;5.60;;;4.23;;
10645;SDS011;5371;49.782;9.932;2023-12-29T03:17:16;7.77;;;4.03;;
10645;SDS011;5371;49.782;9.932;2023-12-29T03:19:43;4.87;;;3.67;;
10645;SDS011;5371;49.782;9.932;2023-12-29T03:22:10;5.53;;;3.80;;
10645;SDS011;5371;49.782;9.932;2023-12-29T03:24:37;5.00;;;3.43;;
10645;SDS011;5371;49.782;9.932;2023-12-29T03:27:06;4.30;;;3.67;;
10645;SDS011;5371;49.782;9.932;2023-12-29T03:29:35;5.17;;;3.70;;
10645;SDS011;5371;49.782;9.932;2023-12-29T03:32:04;5.93;;;3.47;;
10645;SDS011;5371;49.782;9.932;2023-12-29T03:34:32;4.93;;;3.23;;
10645;SDS011;5371;49.782;9.932;2023-12-29T03:36:59;4.93;;;3.60;;
10645;SDS011;5371;49.782;9.932;2023-12-29T03:39:26;5.55;;;3.83;;
10645;SDS011;5371;49.782;9.932;2023-12-29T03:41:53;4.27;;;3.50;;
10645;SDS011;5371;49.782;9.932;2023-12-29T03:44:22;3.78;;;3.33;;
10645;SDS011;5371;49.782;9.932;2023-12-29T03:46:49;5.10;;;3.55;;
10645;SDS011;5371;49.782;9.932;2023-12-29T03:49:18;5.00;;;3.67;;
10645;SDS011;5371;49.782;9.932;2023-12-29T03:51:45;4.07;;;3.10;;
10645;SDS011;5371;49.782;9.932;2023-12-29T03:54:12;3.63;;;3.10;;
10645;SDS011;5371;49.782;9.932;2023-12-29T03:56:39;5.13;;;3.07;;
10645;SDS011;5371;49.782;9.932;2023-12-29T03:59:06;5.27;;;3.37;;
10645;SDS011;5371;49.782;9.932;2023-12-29T04:01:33;4.53;;;3.20;;
10645;SDS011;5371;49.782;9.932;2023-12-29T04:04:00;4.37;;;3.13;;
10645;SDS011;5371;49.782;9.932;2023-12-29T04:06:29;5.63;;;2.93;;
10645;SDS011;5371;49.782;9.932;2023-12-29T04:08:56;3.27;;;2.87;;
10645;SDS011;5371;49.782;9.932;2023-12-29T04:11:24;3.23;;;2.70;;
10645;SDS011;5371;49.782;9.932;2023-12-29T04:13:51;3.60;;;2.80;;
10645;SDS011;5371;49.782;9.932;2023-12-29T04:16:18;4.90;;;2.92;;
10645;SDS011;5371;49.782;9.932;2023-12-29T04:18:45;3.63;;;2.97;;
10645;SDS011;5371;49.782;9.932;2023-12-29T04:21:13;3.92;;;2.70;;
10645;SDS011;5371;49.782;9.932;2023-12-29T04:23:41;3.37;;;2.60;;
10645;SDS011;5371;49.782;9.932;2023-12-29T04:26:08;3.63;;;2.85;;
10645;SDS011;5371;49.782;9.932;2023-12-29T04:28:36;3.60;;;2.70;;
10645;SDS011;5371;49.782;9.932;2023-12-29T04:31:03;4.93;;;2.70;;
10645;SDS011;5371;49.782;9.932;2023-12-29T04:33:30;3.00;;;2.40;;
10645;SDS011;5371;49.782;9.932;2023-12-29T04:35:57;5.15;;;2.53;;
10645;SDS011;5371;49.782;9.932;2023-12-29T04:38:24;3.70;;;2.47;;
10645;SDS011;5371;49.782;9.932;2023-12-29T04:40:53;3.43;;;2.70;;
10645;SDS011;5371;49.782;9.932;2023-12-29T04:43:20;4.40;;;2.58;;
10645;SDS011;5371;49.782;9.932;2023-12-29T04:45:47;4.90;;;2.63;;
10645;SDS011;5371;49.782;9.932;2023-12-29T04:48:14;6.40;;;2.92;;
10645;SDS011;5371;49.782;9.932;2023-12-29T04:50:41;3.30;;;2.60;;
10645;SDS011;5371;49.782;9.932;2023-12-29T04:53:08;4.90;;;2.53;;
10645;SDS011;5371;49.782;9.932;2023-12-29T04:55:35;3.87;;;2.60;;
10645;SDS011;5371;49.782;9.932;2023-12-29T04:58:03;5.70;;;2.50;;
10645;SDS011;5371;49.782;9.932;2023-12-29T05:00:30;2.83;;;2.40;;
10645;SDS011;5371;49.782;9.932;2023-12-29T05:02:57;4.07;;;2.40;;
10645;SDS011;5371;49.782;9.932;2023-12-29T05:05:24;2.47;;;1.97;;
10645;SDS011;5371;49.782;9.932;2023-12-29T05:07:51;3.50;;;2.22;;
10645;SDS011;5371;49.782;9.932;2023-12-29T05:10:18;2.73;;;2.50;;
10645;SDS011;5371;49.782;9.932;2023-12-29T05:12:45;2.10;;;1.83;;
10645;SDS011;5371;49.782;9.932;2023-12-29T05:15:13;2.93;;;2.40;;
10645;SDS011;5371;49.782;9.932;2023-12-29T05:17:40;4.30;;;2.60;;
10645;SDS011;5371;49.782;9.932;2023-12-29T05:20:08;3.05;;;2.50;;
10645;SDS011;5371;49.782;9.932;2023-12-29T05:22:35;4.67;;;2.73;;
10645;SDS011;5371;49.782;9.932;2023-12-29T05:25:02;5.20;;;2.40;;
10645;SDS011;5371;49.782;9.932;2023-12-29T05:27:30;3.57;;;2.57;;
10645;SDS011;5371;49.782;9.932;2023-12-29T05:29:58;4.63;;;2.43;;
10645;SDS011;5371;49.782;9.932;2023-12-29T05:32:26;3.43;;;2.40;;
10645;SDS011;5371;49.782;9.932;2023-12-29T05:34:53;3.33;;;2.40;;
10645;SDS011;5371;49.782;9.932;2023-12-29T05:37:20;5.07;;;2.50;;
10645;SDS011;5371;49.782;9.932;2023-12-29T05:39:47;5.93;;;2.70;;
10645;SDS011;5371;49.782;9.932;2023-12-29T05:42:14;3.90;;;2.63;;
10645;SDS011;5371;49.782;9.932;2023-12-29T05:44:41;3.70;;;3.00;;
10645;SDS011;5371;49.782;9.932;2023-12-29T05:47:08;3.80;;;2.70;;
10645;SDS011;5371;49.782;9.932;2023-12-29T05:49:36;4.23;;;2.90;;
10645;SDS011;5371;49.782;9.932;2023-12-29T05:52:04;4.20;;;3.13;;
10645;SDS011;5371;49.782;9.932;2023-12-29T05:54:31;5.50;;;3.40;;
10645;SDS011;5371;49.782;9.932;2023-12-29T05:56:59;6.57;;;3.30;;
10645;SDS011;5371;49.782;9.932;2023-12-29T05:59:26;6.73;;;3.30;;
10645;SDS011;5371;49.782;9.932;2023-12-29T06:01:54;6.03;;;3.73;;
10645;SDS011;5371;49.782;9.932;2023-12-29T06:04:21;4.80;;;3.47;;
10645;SDS011;5371;49.782;9.932;2023-12-29T06:06:49;5.97;;;3.80;;
10645;SDS011;5371;49.782;9.932;2023-12-29T06:09:17;5.13;;;3.47;;
10645;SDS011;5371;49.782;9.932;2023-12-29T06:11:44;4.30;;;3.77;;
10645;SDS011;5371;49.782;9.932;2023-12-29T06:14:11;4.37;;;3.67;;
10645;SDS011;5371;49.782;9.932;2023-12-29T06:16:38;4.40;;;3.50;;
10645;SDS011;5371;49.782;9.932;2023-12-29T06:19:05;6.93;;;3.47;;
10645;SDS011;5371;49.782;9.932;2023-12-29T06:21:32;4.67;;;3.57;;
10645;SDS011;5371;49.782;9.932;2023-12-29T06:24:00;4.20;;;3.63;;
10645;SDS011;5371;49.782;9.932;2023-12-29T06:26:27;5.93;;;3.80;;
10645;SDS011;5371;49.782;9.932;2023-12-29T06:28:54;6.03;;;3.63;;
10645;SDS011;5371;49.782;9.932;2023-12-29T06:31:21;5.80;;;3.30;;
10645;SDS011;5371;49.782;9.932;2023-12-29T06:33:48;7.13;;;3.60;;
10645;SDS011;5371;49.782;9.932;2023-12-29T06:36:15;5.30;;;3.17;;
10645;SDS011;5371;49.782;9.932;2023-12-29T06:38:43;3.80;;;3.10;;
10645;SDS011;5371;49.782;9.932;2023-12-29T06:41:15;3.93;;;3.27;;
10645;SDS011;5371;49.782;9.932;2023-12-29T06:43:42;3.50;;;2.93;;
10645;SDS011;5371;49.782;9.932;2023-12-29T06:46:09;3.70;;;3.17;;
10645;SDS011;5371;49.782;9.932;2023-12-29T06:48:38;3.83;;;3.10;;
10645;SDS011;5371;49.782;9.932;2023-12-29T06:51:05;5.97;;;3.17;;
10645;SDS011;5371;49.782;9.932;2023-12-29T06:53:32;4.20;;;3.40;;
10645;SDS011;5371;49.782;9.932;2023-12-29T06:55:59;3.47;;;2.97;;
10645;SDS011;5371;49.782;9.932;2023-12-29T06:58:27;4.23;;;2.97;;
10645;SDS011;5371;49.782;9.932;2023-12-29T07:00:54;5.30;;;3.40;;
10645;SDS011;5371;49.782;9.932;2023-12-29T07:03:21;3.93;;;2.97;;
10645;SDS011;5371;49.782;9.932;2023-12-29T07:05:48;4.90;;;3.20;;
10645;SDS011;5371;49.782;9.932;2023-12-29T07:08:15;4.90;;;3.13;;
10645;SDS011;5371;49.782;9.932;2023-12-29T07:10:42;3.97;;;2.90;;
10645;SDS011;5371;49.782;9.932;2023-12-29T07:13:09;4.53;;;3.00;;
10645;SDS011;5371;49.782;9.932;2023-12-29T07:15:38;2.67;;;2.47;;
10645;SDS011;5371;49.782;9.932;2023-12-29T07:18:05;4.00;;;2.80;;
10645;SDS011;5371;49.782;9.932;2023-12-29T07:20:32;3.83;;;3.10;;
10645;SDS011;5371;49.782;9.932;2023-12-29T07:22:59;4.67;;;2.87;;
10645;SDS011;5371;49.782;9.932;2023-12-29T07:25:26;3.70;;;2.77;;
10645;SDS011;5371;49.782;9.932;2023-12-29T07:27:53;4.60;;;2.90;;
10645;SDS011;5371;49.782;9.932;2023-12-29T07:30:20;3.00;;;2.70;;
10645;SDS011;5371;49.782;9.932;2023-12-29T07:32:49;3.87;;;2.73;;
10645;SDS011;5371;49.782;9.932;2023-12-29T07:35:16;4.37;;;2.90;;
10645;SDS011;5371;49.782;9.932;2023-12-29T07:37:45;3.73;;;3.00;;
10645;SDS011;5371;49.782;9.932;2023-12-29T07:40:12;4.27;;;2.73;;
10645;SDS011;5371;49.782;9.932;2023-12-29T07:42:40;5.00;;;2.40;;
10645;SDS011;5371;49.782;9.932;2023-12-29T07:45:08;3.27;;;2.87;;
10645;SDS011;5371;49.782;9.932;2023-12-29T07:47:35;3.43;;;2.53;;
10645;SDS011;5371;49.782;9.932;2023-12-29T07:50:03;4.33;;;2.60;;
10645;SDS011;5371;49.782;9.932;2023-12-29T07:52:31;3.03;;;2.43;;
10645;SDS011;5371;49.782;9.932;2023-12-29T07:54:58;3.10;;;2.40;;
10645;SDS011;5371;49.782;9.932;2023-12-29T07:57:25;2.93;;;2.20;;
10645;SDS011;5371;49.782;9.932;2023-12-29T07:59:51;3.03;;;2.30;;
10645;SDS011;5371;49.782;9.932;2023-12-29T08:02:18;3.70;;;2.47;;
10645;SDS011;5371;49.782;9.932;2023-12-29T08:04:45;3.03;;;2.00;;
10645;SDS011;5371;49.782;9.932;2023-12-29T08:07:15;2.63;;;2.10;;
10645;SDS011;5371;49.782;9.932;2023-12-29T08:09:42;3.13;;;1.90;;
10645;SDS011;5371;49.782;9.932;2023-12-29T08:12:09;3.97;;;2.23;;
10645;SDS011;5371;49.782;9.932;2023-12-29T08:14:36;2.53;;;1.83;;
10645;SDS011;5371;49.782;9.932;2023-12-29T08:17:03;2.87;;;2.00;;
10645;SDS011;5371;49.782;9.932;2023-12-29T08:19:30;2.85;;;2.15;;
10645;SDS011;5371;49.782;9.932;2023-12-29T08:21:57;2.17;;;1.90;;
10645;SDS011;5371;49.782;9.932;2023-12-29T08:24:25;2.43;;;2.10;;
10645;SDS011;5371;49.782;9.932;2023-12-29T08:26:52;2.83;;;2.20;;
10645;SDS011;5371;49.782;9.932;2023-12-29T08:29:19;2.80;;;2.00;;
10645;SDS011;5371;49.782;9.932;2023-12-29T08:31:46;2.30;;;2.10;;
10645;SDS011;5371;49.782;9.932;2023-12-29T08:34:13;2.47;;;1.93;;
10645;SDS011;5371;49.782;9.932;2023-12-29T08:36:40;2.85;;;2.20;;
10645;SDS011;5371;49.782;9.932;2023-12-29T08:39:07;2.28;;;2.00;;
10645;SDS011;5371;49.782;9.932;2023-12-29T08:41:36;2.70;;;1.77;;
10645;SDS011;5371;49.782;9.932;2023-12-29T08:44:03;3.13;;;1.90;;
10645;SDS011;5371;49.782;9.932;2023-12-29T08:46:30;2.03;;;1.83;;
10645;SDS011;5371;49.782;9.932;2023-12-29T08:48:58;2.53;;;2.03;;
10645;SDS011;5371;49.782;9.932;2023-12-29T08:51:26;2.30;;;1.80;;
10645;SDS011;5371;49.782;9.932;2023-12-29T08:53:54;2.10;;;1.90;;
10645;SDS011;5371;49.782;9.932;2023-12-29T08:56:21;3.23;;;1.83;;
10645;SDS011;5371;49.782;9.932;2023-12-29T08:58:49;3.40;;;1.90;;
10645;SDS011;5371;49.782;9.932;2023-12-29T09:01:16;2.97;;;1.90;;
10645;SDS011;5371;49.782;9.932;2023-12-29T09:03:43;1.93;;;1.60;;
10645;SDS011;5371;49.782;9.932;2023-12-29T09:06:10;1.70;;;1.50;;
10645;SDS011;5371;49.782;9.932;2023-12-29T09:08:37;2.55;;;1.85;;
10645;SDS011;5371;49.782;9.932;2023-12-29T09:11:04;2.37;;;1.90;;
10645;SDS011;5371;49.782;9.932;2023-12-29T09:13:31;2.57;;;1.70;;
10645;SDS011;5371;49.782;9.932;2023-12-29T09:15:59;2.28;;;1.60;;
10645;SDS011;5371;49.782;9.932;2023-12-29T09:18:26;2.53;;;1.80;;
10645;SDS011;5371;49.782;9.932;2023-12-29T09:20:53;1.98;;;1.60;;
10645;SDS011;5371;49.782;9.932;2023-12-29T09:23:20;1.73;;;1.52;;
10645;SDS011;5371;49.782;9.932;2023-12-29T09:25:47;2.55;;;1.80;;
10645;SDS011;5371;49.782;9.932;2023-12-29T09:28:14;2.47;;;1.50;;
10645;SDS011;5371;49.782;9.932;2023-12-29T09:30:41;2.30;;;1.73;;
10645;SDS011;5371;49.782;9.932;2023-12-29T09:33:09;2.15;;;1.70;;
10645;SDS011;5371;49.782;9.932;2023-12-29T09:35:37;2.63;;;1.70;;
10645;SDS011;5371;49.782;9.932;2023-12-29T09:38:04;2.85;;;1.70;;
10645;SDS011;5371;49.782;9.932;2023-12-29T09:40:31;2.08;;;1.70;;
10645;SDS011;5371;49.782;9.932;2023-12-29T09:42:59;1.90;;;1.50;;
10645;SDS011;5371;49.782;9.932;2023-12-29T09:45:29;2.45;;;1.45;;
10645;SDS011;5371;49.782;9.932;2023-12-29T09:47:56;2.38;;;1.77;;
10645;SDS011;5371;49.782;9.932;2023-12-29T09:50:26;2.00;;;1.73;;
10645;SDS011;5371;49.782;9.932;2023-12-29T09:52:53;1.67;;;1.58;;
10645;SDS011;5371;49.782;9.932;2023-12-29T09:55:20;2.47;;;1.75;;
10645;SDS011;5371;49.782;9.932;2023-12-29T09:57:49;2.70;;;1.67;;
10645;SDS011;5371;49.782;9.932;2023-12-29T10:00:18;5.05;;;1.63;;
10645;SDS011;5371;49.782;9.932;2023-12-29T10:02:46;2.90;;;1.73;;
10645;SDS011;5371;49.782;9.932;2023-12-29T10:05:15;2.63;;;1.90;;
10645;SDS011;5371;49.782;9.932;2023-12-29T10:07:43;2.65;;;1.80;;
10645;SDS011;5371;49.782;9.932;2023-12-29T10:10:14;2.58;;;1.77;;
10645;SDS011;5371;49.782;9.932;2023-12-29T10:12:42;3.55;;;2.10;;
10645;SDS011;5371;49.782;9.932;2023-12-29T10:15:12;2.60;;;1.73;;
10645;SDS011;5371;49.782;9.932;2023-12-29T10:17:43;1.95;;;1.60;;
10645;SDS011;5371;49.782;9.932;2023-12-29T10:20:15;2.83;;;1.80;;
10645;SDS011;5371;49.782;9.932;2023-12-29T10:22:54;2.53;;;1.77;;
10645;SDS011;5371;49.782;9.932;2023-12-29T10:25:25;3.03;;;1.73;;
10645;SDS011;5371;49.782;9.932;2023-12-29T10:27:52;3.83;;;1.98;;
10645;SDS011;5371;49.782;9.932;2023-12-29T10:30:19;2.30;;;1.88;;
10645;SDS011;5371;49.782;9.932;2023-12-29T10:32:49;2.83;;;1.70;;
10645;SDS011;5371;49.782;9.932;2023-12-29T10:35:16;2.00;;;1.80;;
10645;SDS011;5371;49.782;9.932;2023-12-29T10:37:43;2.40;;;1.80;;
10645;SDS011;5371;49.782;9.932;2023-12-29T10:40:14;2.95;;;1.90;;
10645;SDS011;5371;49.782;9.932;2023-12-29T10:42:51;1.63;;;1.50;;
10645;SDS011;5371;49.782;9.932;2023-12-29T10:45:18;3.15;;;2.03;;
10645;SDS011;5371;49.782;9.932;2023-12-29T10:47:45;2.03;;;1.80;;
10645;SDS011;5371;49.782;9.932;2023-12-29T10:50:12;3.95;;;1.90;;
10645;SDS011;5371;49.782;9.932;2023-12-29T10:52:39;2.42;;;1.83;;
10645;SDS011;5371;49.782;9.932;2023-12-29T10:55:08;3.33;;;1.73;;
10645;SDS011;5371;49.782;9.932;2023-12-29T10:57:37;3.25;;;1.75;;
10645;SDS011;5371;49.782;9.932;2023-12-29T11:00:05;2.35;;;1.77;;
10645;SDS011;5371;49.782;9.932;2023-12-29T11:02:33;1.60;;;1.50;;
10645;SDS011;5371;49.782;9.932;2023-12-29T11:05:01;2.22;;;1.70;;
10645;SDS011;5371;49.782;9.932;2023-12-29T11:07:32;1.83;;;1.40;;
10645;SDS011;5371;49.782;9.932;2023-12-29T11:10:00;3.03;;;1.65;;
10645;SDS011;5371;49.782;9.932;2023-12-29T11:12:29;1.40;;;1.30;;
10645;SDS011;5371;49.782;9.932;2023-12-29T11:14:59;1.48;;;1.27;;
10645;SDS011;5371;49.782;9.932;2023-12-29T11:17:26;2.15;;;1.60;;
10645;SDS011;5371;49.782;9.932;2023-12-29T11:19:53;1.83;;;1.30;;
10645;SDS011;5371;49.782;9.932;2023-12-29T11:22:20;4.93;;;1.63;;
10645;SDS011;5371;49.782;9.932;2023-12-29T11:24:48;1.63;;;1.50;;
10645;SDS011;5371;49.782;9.932;2023-12-29T11:27:15;2.58;;;1.40;;
10645;SDS011;5371;49.782;9.932;2023-12-29T11:29:42;2.25;;;1.30;;
10645;SDS011;5371;49.782;9.932;2023-12-29T11:32:12;3.53;;;1.65;;
10645;SDS011;5371;49.782;9.932;2023-12-29T11:34:44;1.95;;;1.35;;
10645;SDS011;5371;49.782;9.932;2023-12-29T11:37:16;2.40;;;1.40;;
10645;SDS011;5371;49.782;9.932;2023-12-29T11:39:48;2.28;;;1.25;;
10645;SDS011;5371;49.782;9.932;2023-12-29T11:42:19;1.60;;;1.10;;
10645;SDS011;5371;49.782;9.932;2023-12-29T11:44:48;1.60;;;1.25;;
10645;SDS011;5371;49.782;9.932;2023-12-29T11:50:02;2.05;;;1.48;;
10645;SDS011;5371;49.782;9.932;2023-12-29T11:52:32;1.98;;;1.50;;
10645;SDS011;5371;49.782;9.932;2023-12-29T11:55:06;1.50;;;1.20;;
10645;SDS011;5371;49.782;9.932;2023-12-29T11:57:34;1.95;;;1.52;;
10645;SDS011;5371;49.782;9.932;2023-12-29T12:00:03;2.72;;;1.50;;
10645;SDS011;5371;49.782;9.932;2023-12-29T12:02:38;2.92;;;1.48;;
10645;SDS011;5371;49.782;9.932;2023-12-29T12:05:08;1.67;;;1.38;;
10645;SDS011;5371;49.782;9.932;2023-12-29T12:10:30;2.10;;;1.50;;
10645;SDS011;5371;49.782;9.932;2023-12-29T12:12:58;3.72;;;1.48;;
10645;SDS011;5371;49.782;9.932;2023-12-29T12:15:32;2.15;;;1.80;;
10645;SDS011;5371;49.782;9.932;2023-12-29T12:18:00;1.83;;;1.50;;
10645;SDS011;5371;49.782;9.932;2023-12-29T12:20:29;1.60;;;1.38;;
10645;SDS011;5371;49.782;9.932;2023-12-29T12:22:57;1.80;;;1.50;;
10645;SDS011;5371;49.782;9.932;2023-12-29T12:25:25;3.70;;;1.80;;
10645;SDS011;5371;49.782;9.932;2023-12-29T12:27:53;2.08;;;1.60;;
10645;SDS011;5371;49.782;9.932;2023-12-29T12:30:21;2.20;;;1.52;;
10645;SDS011;5371;49.782;9.932;2023-12-29T12:32:56;4.28;;;1.55;;
10645;SDS011;5371;49.782;9.932;2023-12-29T12:35:25;2.83;;;1.60;;
10645;SDS011;5371;49.782;9.932;2023-12-29T12:38:06;3.30;;;1.40;;
10645;SDS011;5371;49.782;9.932;2023-12-29T12:40:33;2.10;;;1.52;;
10645;SDS011;5371;49.782;9.932;2023-12-29T12:43:00;2.45;;;1.60;;
10645;SDS011;5371;49.782;9.932;2023-12-29T12:45:29;2.03;;;1.50;;
10645;SDS011;5371;49.782;9.932;2023-12-29T12:48:00;2.33;;;1.40;;
10645;SDS011;5371;49.782;9.932;2023-12-29T12:50:30;1.75;;;1.42;;
10645;SDS011;5371;49.782;9.932;2023-12-29T12:52:57;1.75;;;1.30;;
10645;SDS011;5371;49.782;9.932;2023-12-29T12:55:24;1.90;;;1.60;;
10645;SDS011;5371;49.782;9.932;2023-12-29T12:57:53;1.60;;;1.30;;
10645;SDS011;5371;49.782;9.932;2023-12-29T13:00:20;2.65;;;1.20;;
10645;SDS011;5371;49.782;9.932;2023-12-29T13:02:47;1.90;;;1.30;;
10645;SDS011;5371;49.782;9.932;2023-12-29T13:05:15;2.40;;;1.40;;
10645;SDS011;5371;49.782;9.932;2023-12-29T13:07:44;1.33;;;1.10;;
10645;SDS011;5371;49.782;9.932;2023-12-29T13:10:11;3.35;;;1.20;;
10645;SDS011;5371;49.782;9.932;2023-12-29T13:12:38;2.70;;;1.50;;
10645;SDS011;5371;49.782;9.932;2023-12-29T13:15:05;2.08;;;1.20;;
10645;SDS011;5371;49.782;9.932;2023-12-29T13:17:34;3.50;;;1.30;;
10645;SDS011;5371;49.782;9.932;2023-12-29T13:20:01;2.83;;;1.40;;
10645;SDS011;5371;49.782;9.932;2023-12-29T13:22:29;2.03;;;1.35;;
10645;SDS011;5371;49.782;9.932;2023-12-29T13:24:59;2.30;;;1.30;;
10645;SDS011;5371;49.782;9.932;2023-12-29T13:27:26;1.40;;;1.15;;
10645;SDS011;5371;49.782;9.932;2023-12-29T13:29:53;1.30;;;1.20;;
10645;SDS011;5371;49.782;9.932;2023-12-29T13:32:20;3.85;;;1.33;;
10645;SDS011;5371;49.782;9.932;2023-12-29T13:34:51;2.65;;;1.33;;
10645;SDS011;5371;49.782;9.932;2023-12-29T13:37:22;2.80;;;1.20;;
10645;SDS011;5371;49.782;9.932;2023-12-29T13:39:55;2.10;;;1.30;;
10645;SDS011;5371;49.782;9.932;2023-12-29T13:42:26;1.30;;;1.08;;
10645;SDS011;5371;49.782;9.932;2023-12-29T13:44:55;2.08;;;1.20;;
10645;SDS011;5371;49.782;9.932;2023-12-29T13:47:22;1.30;;;1.10;;
10645;SDS011;5371;49.782;9.932;2023-12-29T13:49:50;2.83;;;1.30;;
10645;SDS011;5371;49.782;9.932;2023-12-29T13:52:17;1.40;;;1.00;;
10645;SDS011;5371;49.782;9.932;2023-12-29T13:54:46;2.15;;;1.10;;
10645;SDS011;5371;49.782;9.932;2023-12-29T13:57:13;1.60;;;1.25;;
10645;SDS011;5371;49.782;9.932;2023-12-29T13:59:42;1.17;;;1.02;;
10645;SDS011;5371;49.782;9.932;2023-12-29T14:02:19;2.08;;;1.20;;
10645;SDS011;5371;49.782;9.932;2023-12-29T14:05:05;1.92;;;0.98;;
10645;SDS011;5371;49.782;9.932;2023-12-29T14:07:37;1.70;;;1.30;;
10645;SDS011;5371;49.782;9.932;2023-12-29T14:10:10;1.17;;;1.05;;
10645;SDS011;5371;49.782;9.932;2023-12-29T14:12:37;1.20;;;1.10;;
10645;SDS011;5371;49.782;9.932;2023-12-29T14:15:07;1.27;;;1.10;;
10645;SDS011;5371;49.782;9.932;2023-12-29T14:17:34;1.90;;;1.20;;
10645;SDS011;5371;49.782;9.932;2023-12-29T14:20:04;1.95;;;1.20;;
10645;SDS011;5371;49.782;9.932;2023-12-29T14:22:32;1.75;;;1.20;;
10645;SDS011;5371;49.782;9.932;2023-12-29T14:25:00;2.92;;;1.33;;
10645;SDS011;5371;49.782;9.932;2023-12-29T14:27:28;1.67;;;1.02;;
10645;SDS011;5371;49.782;9.932;2023-12-29T14:29:56;2.25;;;1.10;;
10645;SDS011;5371;49.782;9.932;2023-12-29T14:32:24;1.65;;;1.15;;
10645;SDS011;5371;49.782;9.932;2023-12-29T14:34:54;3.35;;;1.20;;
10645;SDS011;5371;49.782;9.932;2023-12-29T14:37:21;1.73;;;1.20;;
10645;SDS011;5371;49.782;9.932;2023-12-29T14:39:49;1.80;;;1.20;;
10645;SDS011;5371;49.782;9.932;2023-12-29T14:42:16;2.53;;;1.40;;
10645;SDS011;5371;49.782;9.932;2023-12-29T14:44:45;2.13;;;1.40;;
10645;SDS011;5371;49.782;9.932;2023-12-29T14:47:12;1.40;;;1.20;;
10645;SDS011;5371;49.782;9.932;2023-12-29T14:49:41;2.60;;;1.35;;
10645;SDS011;5371;49.782;9.932;2023-12-29T14:52:08;1.90;;;1.40;;
10645;SDS011;5371;49.782;9.932;2023-12-29T14:54:35;2.47;;;1.35;;
10645;SDS011;5371;49.782;9.932;2023-12-29T14:57:02;3.05;;;1.52;;
10645;SDS011;5371;49.782;9.932;2023-12-29T14:59:29;2.70;;;1.70;;
10645;SDS011;5371;49.782;9.932;2023-12-29T15:01:56;4.43;;;1.55;;
10645;SDS011;5371;49.782;9.932;2023-12-29T15:04:24;2.30;;;1.73;;
10645;SDS011;5371;49.782;9.932;2023-12-29T15:06:52;1.77;;;1.67;;
10645;SDS011;5371;49.782;9.932;2023-12-29T15:09:19;4.07;;;2.00;;